Time;durP1;ratioP1;P1;durP2;ratioP2;P2;SDS_P1;SDS_P2;PMS_P1;PMS_P2;Temp;Humidity;BMP_temperature;BMP_pressure;BME280_temperature;BME280_humidity;BME280_pressure;Samples;Min_cycle;Max_cycle;Signal;HPM_P1;HPM_P2
2022/07/31 00:00:27;;;;;;;;;;;;;;;26.36;45.68;100083.09;2089166;28;20272;-45
2022/07/31 00:01:28;;;;;;;;;;;;;;;26.35;45.44;100082.25;2092988;28;20203;-45
2022/07/31 00:02:28;;;;;;;;;;;;;;;26.35;45.48;100082.25;2094551;28;19912;-44
2022/07/31 00:03:29;;;;;;;;;;;;;;;26.35;45.69;100087.78;2091113;28;19927;-45
2022/07/31 00:04:30;;;;;;;;;;;;;;;26.35;45.56;100076.72;2092090;28;19939;-45
2022/07/31 00:05:31;;;;;;;;;;;;;;;26.35;45.72;100078.63;2092798;28;19916;-44
2022/07/31 00:06:31;;;;;;;;;;;;;;;26.35;45.44;100082.25;2091319;28;20615;-46
2022/07/31 00:07:32;;;;;;;;;;;;;;;26.34;45.77;100076.94;2092830;28;19923;-46
2022/07/31 00:08:32;;;;;;;;;;;;;;;26.33;45.49;100072.44;2090619;28;19946;-44
2022/07/31 00:09:32;;;;;;;;;;;;;;;26.33;45.64;100070.53;2091845;28;19969;-44
2022/07/31 00:10:33;;;;;;;;;;;;;;;26.34;45.61;100075.03;2094818;28;19916;-45
2022/07/31 00:11:33;;;;;;;;;;;;;;;26.33;45.82;100067.75;2091644;28;19924;-44
2022/07/31 00:12:34;;;;;;;;;;;;;;;26.34;45.50;100076.94;2093025;28;20346;-44
2022/07/31 00:13:34;;;;;;;;;;;;;;;26.33;45.52;100072.44;2094757;28;19916;-46
2022/07/31 00:14:34;;;;;;;;;;;;;;;26.34;45.78;100074.16;2092025;28;20513;-44
2022/07/31 00:15:34;;;;;;;;;;;;;;;26.34;45.72;100072.25;2092524;28;19977;-45
2022/07/31 00:16:35;;;;;;;;;;;;;;;26.34;45.40;100065.88;2093400;28;19976;-44
2022/07/31 00:17:36;;;;;;;;;;;;;;;26.34;45.76;100068.66;2092091;28;19922;-46
2022/07/31 00:18:36;;;;;;;;;;;;;;;26.35;45.56;100065.66;2093612;28;20414;-44
2022/07/31 00:19:37;;;;;;;;;;;;;;;26.34;45.72;100074.16;2092712;28;19980;-46
2022/07/31 00:20:37;;;;;;;;;;;;;;;26.34;45.54;100069.50;2092885;28;20033;-44
2022/07/31 00:21:37;;;;;;;;;;;;;;;26.34;45.66;100069.50;2094520;28;19919;-45
2022/07/31 00:22:38;;;;;;;;;;;;;;;26.34;45.73;100072.25;2091487;28;19916;-45
2022/07/31 00:23:39;;;;;;;;;;;;;;;26.34;45.43;100063.97;2093400;28;19927;-44
2022/07/31 00:24:40;;;;;;;;;;;;;;;26.33;45.43;100062.25;2092372;28;19916;-45
2022/07/31 00:25:40;;;;;;;;;;;;;;;26.35;45.49;100073.09;2091326;28;19920;-45
2022/07/31 00:26:40;;;;;;;;;;;;;;;26.35;45.70;100073.09;2092612;28;20322;-45
2022/07/31 00:27:41;;;;;;;;;;;;;;;26.35;45.64;100065.66;2090453;28;20659;-45
2022/07/31 00:28:41;;;;;;;;;;;;;;;26.34;45.59;100072.25;2089096;28;20286;-46
2022/07/31 00:29:42;;;;;;;;;;;;;;;26.34;45.58;100072.25;2092658;28;20301;-45
2022/07/31 00:30:42;;;;;;;;;;;;;;;26.33;45.56;100067.75;2092549;28;19993;-45
2022/07/31 00:31:43;;;;;;;;;;;;;;;26.36;45.67;100074.81;2092381;28;19920;-45
2022/07/31 00:32:44;;;;;;;;;;;;;;;26.35;45.75;100075.88;2094833;28;19965;-45
2022/07/31 00:33:44;;;;;;;;;;;;;;;26.34;45.76;100069.50;2092856;28;19977;-44
2022/07/31 00:34:44;;;;;;;;;;;;;;;26.34;45.54;100075.03;2093691;28;19923;-45
2022/07/31 00:35:44;;;;;;;;;;;;;;;26.33;45.48;100078.81;2094397;28;20010;-45
2022/07/31 00:36:45;;;;;;;;;;;;;;;26.35;45.51;100076.72;2095162;28;19920;-44
2022/07/31 00:37:45;;;;;;;;;;;;;;;26.33;45.64;100084.34;2092447;28;19916;-44
2022/07/31 00:38:45;;;;;;;;;;;;;;;26.34;45.37;100076.94;2092579;28;19915;-43
2022/07/31 00:39:46;;;;;;;;;;;;;;;26.33;45.52;100073.28;2092113;28;20144;-45
2022/07/31 00:40:49;;;;;;;;;;;;;;;26.33;45.70;100072.44;2095643;28;20234;-48
2022/07/31 00:41:49;;;;;;;;;;;;;;;26.33;45.81;100070.53;2092779;28;20626;-47
2022/07/31 00:42:50;;;;;;;;;;;;;;;26.34;45.51;100080.56;2094526;28;19920;-45
2022/07/31 00:43:50;;;;;;;;;;;;;;;26.34;45.80;100072.25;2092083;28;20573;-45
2022/07/31 00:44:51;;;;;;;;;;;;;;;26.34;45.51;100075.03;2092336;28;19928;-45
2022/07/31 00:45:52;;;;;;;;;;;;;;;26.33;45.51;100070.53;2094604;28;20349;-48
2022/07/31 00:46:52;;;;;;;;;;;;;;;26.33;45.51;100078.81;2093651;28;19958;-44
2022/07/31 00:47:52;;;;;;;;;;;;;;;26.33;45.91;100073.28;2093123;28;19935;-46
2022/07/31 00:48:53;;;;;;;;;;;;;;;26.33;45.52;100078.81;2092657;28;19948;-46
2022/07/31 00:49:53;;;;;;;;;;;;;;;26.31;45.74;100075.41;2094371;28;19924;-44
2022/07/31 00:50:54;;;;;;;;;;;;;;;26.31;45.58;100080.91;2087980;28;20022;-45
2022/07/31 00:51:55;;;;;;;;;;;;;;;26.32;45.45;100077.13;2093910;28;19920;-44
2022/07/31 00:52:55;;;;;;;;;;;;;;;26.32;45.85;100079.03;2093485;28;19969;-45
2022/07/31 00:53:55;;;;;;;;;;;;;;;26.32;45.52;100081.81;2093353;28;19922;-45
2022/07/31 00:54:56;;;;;;;;;;;;;;;26.32;45.57;100087.31;2092657;28;19981;-44
2022/07/31 00:55:57;;;;;;;;;;;;;;;26.31;45.78;100083.69;2091258;28;19918;-44
2022/07/31 00:56:57;;;;;;;;;;;;;;;26.32;45.63;100087.31;2093416;28;19928;-45
2022/07/31 00:57:57;;;;;;;;;;;;;;;26.32;45.78;100084.56;2093575;28;20115;-44
2022/07/31 00:58:57;;;;;;;;;;;;;;;26.30;45.72;100085.59;2090320;28;19908;-44
2022/07/31 00:59:58;;;;;;;;;;;;;;;26.32;45.58;100093.69;2097186;28;19954;-45
2022/07/31 01:00:59;;;;;;;;;;;;;;;26.32;45.66;100087.31;2089364;28;19908;-44
2022/07/31 01:01:59;;;;;;;;;;;;;;;26.32;45.73;100088.19;2089629;28;20636;-44
2022/07/31 01:03:00;;;;;;;;;;;;;;;26.32;45.70;100090.09;2087395;28;19951;-43
2022/07/31 01:04:00;;;;;;;;;;;;;;;26.31;45.74;100078.16;2086003;28;19916;-45
2022/07/31 01:05:00;;;;;;;;;;;;;;;26.31;45.74;100080.91;2089896;28;20276;-45
2022/07/31 01:06:02;;;;;;;;;;;;;;;26.31;45.76;100083.69;2089447;28;19927;-47
2022/07/31 01:07:02;;;;;;;;;;;;;;;26.31;45.50;100080.91;2089843;28;19920;-43
2022/07/31 01:08:03;;;;;;;;;;;;;;;26.32;45.46;100087.31;2091406;28;19966;-44
2022/07/31 01:09:03;;;;;;;;;;;;;;;26.33;45.74;100084.34;2089911;28;20761;-45
2022/07/31 01:10:07;;;;;;;;;;;;;;;26.31;45.45;100089.22;2095293;28;19916;-44
2022/07/31 01:11:10;;;;;;;;;;;;;;;26.32;45.46;100087.31;2093251;28;20015;-46
2022/07/31 01:12:39;;;;;;;;;;;;;;;26.32;45.45;100088.19;2092270;28;19923;-44
2022/07/31 01:13:42;;;;;;;;;;;;;;;26.31;45.42;100086.44;2084045;28;19920;-44
2022/07/31 01:14:53;;;;;;;;;;;;;;;26.32;45.42;100082.66;2092922;28;19998;-46
2022/07/31 01:15:54;;;;;;;;;;;;;;;26.31;45.49;100086.44;2089209;28;19926;-44
2022/07/31 01:16:55;;;;;;;;;;;;;;;26.32;45.69;100088.19;2094421;28;19962;-44
2022/07/31 01:17:57;;;;;;;;;;;;;;;26.32;45.80;100088.19;2091235;28;19922;-45
2022/07/31 01:18:58;;;;;;;;;;;;;;;26.32;45.65;100084.56;2093835;28;19920;-45
2022/07/31 01:19:58;;;;;;;;;;;;;;;26.32;45.48;100082.66;2093333;28;19916;-44
2022/07/31 01:21:01;;;;;;;;;;;;;;;26.32;45.57;100087.31;2092143;28;21080;-44
2022/07/31 01:22:13;;;;;;;;;;;;;;;26.32;45.72;100090.09;2091168;28;20206;-45
2022/07/31 01:23:36;;;;;;;;;;;;;;;26.31;45.75;100086.44;2089806;28;19989;-45
2022/07/31 01:24:51;;;;;;;;;;;;;;;26.32;45.72;100092.84;2082212;28;19920;-45
2022/07/31 01:25:54;;;;;;;;;;;;;;;26.31;45.54;100080.91;2093087;28;19912;-44
2022/07/31 01:27:02;;;;;;;;;;;;;;;26.30;45.49;100087.50;2093598;28;19916;-46
2022/07/31 01:28:06;;;;;;;;;;;;;;;26.32;45.42;100087.31;2093021;28;19926;-44
2022/07/31 01:29:24;;;;;;;;;;;;;;;26.32;45.74;100085.41;2090875;28;20288;-44
2022/07/31 01:30:28;;;;;;;;;;;;;;;26.30;45.53;100091.13;2093364;28;19912;-45
2022/07/31 01:31:40;;;;;;;;;;;;;;;26.31;45.78;100089.22;2090199;28;20042;-45
2022/07/31 01:32:42;;;;;;;;;;;;;;;26.30;45.43;100093.03;2087648;28;19927;-45
2022/07/31 01:33:48;;;;;;;;;;;;;;;26.28;45.74;100090.47;2087996;28;20366;-47
2022/07/31 01:34:51;;;;;;;;;;;;;;;26.29;45.50;100094.09;2088032;28;19954;-44
2022/07/31 01:35:54;;;;;;;;;;;;;;;26.29;45.78;100094.94;2092166;28;19912;-46
2022/07/31 01:37:01;;;;;;;;;;;;;;;26.30;45.49;100095.81;2088537;28;19920;-45
2022/07/31 01:38:19;;;;;;;;;;;;;;;26.29;45.82;100094.09;2090097;28;20486;-46
2022/07/31 01:39:19;;;;;;;;;;;;;;;26.29;45.58;100102.41;2088404;28;19970;-44
2022/07/31 01:40:24;;;;;;;;;;;;;;;26.28;45.52;100097.91;2096225;28;19904;-44
2022/07/31 01:41:27;;;;;;;;;;;;;;;26.29;45.77;100099.63;2091377;28;20455;-44
2022/07/31 01:42:29;;;;;;;;;;;;;;;26.29;45.84;100105.16;2090328;28;19908;-44
2022/07/31 01:43:38;;;;;;;;;;;;;;;26.29;45.89;100105.16;2089047;28;20328;-44
2022/07/31 01:44:41;;;;;;;;;;;;;;;26.29;45.67;100105.16;2089069;28;19912;-46
2022/07/31 01:45:42;;;;;;;;;;;;;;;26.28;45.89;100103.44;2093227;28;20326;-45
2022/07/31 01:46:43;;;;;;;;;;;;;;;26.29;45.68;100102.41;2091111;28;20486;-46
2022/07/31 01:47:44;;;;;;;;;;;;;;;26.29;45.84;100099.63;2089847;28;20113;-46
2022/07/31 01:48:46;;;;;;;;;;;;;;;26.29;45.84;100102.41;2086985;28;19958;-46
2022/07/31 01:49:48;;;;;;;;;;;;;;;26.28;45.58;100098.75;2087248;28;20879;-46
2022/07/31 01:50:50;;;;;;;;;;;;;;;26.29;45.55;100107.91;2090680;28;19920;-44
2022/07/31 01:51:51;;;;;;;;;;;;;;;26.28;45.62;100106.19;2088957;28;19908;-45
2022/07/31 01:52:53;;;;;;;;;;;;;;;26.29;45.71;100110.69;2088181;28;19916;-44
2022/07/31 01:53:54;;;;;;;;;;;;;;;26.29;45.73;100110.69;2091750;28;19916;-44
2022/07/31 01:54:55;;;;;;;;;;;;;;;26.29;45.63;100102.41;2089066;28;19946;-44
2022/07/31 01:55:57;;;;;;;;;;;;;;;26.29;45.81;100096.88;2092801;28;19908;-44
2022/07/31 01:56:58;;;;;;;;;;;;;;;26.29;45.79;100094.09;2092283;28;20314;-46
2022/07/31 01:57:59;;;;;;;;;;;;;;;26.29;45.81;100094.94;2092449;28;19908;-44
2022/07/31 01:59:00;;;;;;;;;;;;;;;26.28;45.82;100097.91;2092500;28;19916;-44
2022/07/31 02:00:02;;;;;;;;;;;;;;;26.29;45.61;100096.88;2094074;28;20648;-45
2022/07/31 02:01:04;;;;;;;;;;;;;;;26.29;45.89;100089.44;2092560;28;20235;-44
2022/07/31 02:02:04;;;;;;;;;;;;;;;26.28;45.83;100087.69;2091006;28;20359;-44
2022/07/31 02:03:05;;;;;;;;;;;;;;;26.28;45.82;100093.22;2093492;28;20256;-44
2022/07/31 02:04:07;;;;;;;;;;;;;;;26.28;45.82;100086.84;2093874;28;20350;-43
2022/07/31 02:05:09;;;;;;;;;;;;;;;26.29;45.52;100085.81;2093417;28;19963;-43
2022/07/31 02:06:10;;;;;;;;;;;;;;;26.29;45.82;100085.81;2093740;28;22097;-45
2022/07/31 02:07:11;;;;;;;;;;;;;;;26.29;45.72;100083.06;2091744;28;20308;-45
2022/07/31 02:08:13;;;;;;;;;;;;;;;26.27;45.85;100080.47;2094056;28;19973;-45
2022/07/31 02:09:16;;;;;;;;;;;;;;;26.28;45.84;100081.31;2092651;28;19916;-44
2022/07/31 02:10:18;;;;;;;;;;;;;;;26.28;45.65;100075.78;2090315;28;20266;-44
2022/07/31 02:11:19;;;;;;;;;;;;;;;26.27;45.82;100077.72;2093910;28;20187;-44
2022/07/31 02:12:19;;;;;;;;;;;;;;;26.27;45.73;100074.09;2093584;28;19969;-45
2022/07/31 02:13:20;;;;;;;;;;;;;;;26.28;45.69;100075.78;2092310;28;19963;-44
2022/07/31 02:14:22;;;;;;;;;;;;;;;26.27;45.76;100071.34;2093821;28;20047;-45
2022/07/31 02:15:22;;;;;;;;;;;;;;;26.27;45.82;100079.63;2090071;28;19924;-45
2022/07/31 02:16:23;;;;;;;;;;;;;;;26.26;45.92;100075.13;2088880;28;20419;-43
2022/07/31 02:17:25;;;;;;;;;;;;;;;26.27;45.93;100076.88;2092700;28;20740;-45
2022/07/31 02:18:25;;;;;;;;;;;;;;;26.26;45.86;100073.25;2090285;28;19988;-45
2022/07/31 02:19:27;;;;;;;;;;;;;;;26.27;45.77;100074.09;2090503;28;19915;-45
2022/07/31 02:20:29;;;;;;;;;;;;;;;26.25;46.03;100066.00;2093890;28;19960;-44
2022/07/31 02:21:30;;;;;;;;;;;;;;;26.26;45.96;100064.09;2091110;28;19981;-44
2022/07/31 02:22:31;;;;;;;;;;;;;;;26.25;46.04;100060.47;2093248;28;19937;-47
2022/07/31 02:23:31;;;;;;;;;;;;;;;26.25;46.08;100054.09;2092204;28;19916;-45
2022/07/31 02:24:32;;;;;;;;;;;;;;;26.25;45.76;100054.09;2089421;28;19916;-44
2022/07/31 02:25:34;;;;;;;;;;;;;;;26.26;45.77;100050.28;2093204;28;19963;-44
2022/07/31 02:26:35;;;;;;;;;;;;;;;26.25;45.82;100054.09;2089794;28;20314;-45
2022/07/31 02:27:38;;;;;;;;;;;;;;;26.25;45.92;100054.09;2091134;28;19954;-44
2022/07/31 02:28:40;;;;;;;;;;;;;;;26.25;45.86;100051.34;2089616;28;20239;-45
2022/07/31 02:29:41;;;;;;;;;;;;;;;26.25;45.71;100054.94;2094024;28;19916;-45
2022/07/31 02:30:42;;;;;;;;;;;;;;;26.24;45.98;100047.72;2096560;27;20549;-44
2022/07/31 02:31:44;;;;;;;;;;;;;;;26.24;45.91;100046.88;2087783;28;19920;-45
2022/07/31 02:32:45;;;;;;;;;;;;;;;26.24;45.86;100046.88;2092504;28;19937;-45
2022/07/31 02:33:46;;;;;;;;;;;;;;;26.24;45.94;100046.88;2089329;28;19974;-45
2022/07/31 02:34:47;;;;;;;;;;;;;;;26.25;45.81;100043.03;2091340;28;19920;-45
2022/07/31 02:35:49;;;;;;;;;;;;;;;26.25;45.79;100048.56;2088100;28;19930;-45
2022/07/31 02:36:51;;;;;;;;;;;;;;;26.26;45.96;100047.50;2090299;28;20287;-44
2022/07/31 02:37:52;;;;;;;;;;;;;;;26.25;45.74;100048.56;2090352;28;19999;-45
2022/07/31 02:38:55;;;;;;;;;;;;;;;26.25;45.76;100054.09;2086092;28;19912;-44
2022/07/31 02:39:56;;;;;;;;;;;;;;;26.25;45.90;100054.09;2091923;28;20189;-44
2022/07/31 02:40:58;;;;;;;;;;;;;;;26.25;45.98;100048.56;2088805;28;20018;-46
2022/07/31 02:41:59;;;;;;;;;;;;;;;26.25;45.63;100054.09;2085240;28;19917;-44
2022/07/31 02:43:00;;;;;;;;;;;;;;;26.25;45.91;100043.03;2091228;28;19915;-44
2022/07/31 02:44:01;;;;;;;;;;;;;;;26.26;45.71;100047.50;2088586;28;19927;-47
2022/07/31 02:45:02;;;;;;;;;;;;;;;26.24;45.94;100033.91;2088416;28;19927;-45
2022/07/31 02:46:03;;;;;;;;;;;;;;;26.25;45.84;100034.75;2092159;28;19923;-47
2022/07/31 02:47:04;;;;;;;;;;;;;;;26.25;45.63;100034.75;2091339;28;19919;-45
2022/07/31 02:48:05;;;;;;;;;;;;;;;26.25;45.63;100032.00;2092347;28;19916;-44
2022/07/31 02:49:06;;;;;;;;;;;;;;;26.26;45.86;100036.44;2094159;28;19912;-45
2022/07/31 02:50:07;;;;;;;;;;;;;;;26.24;45.93;100030.28;2091856;28;19922;-44
2022/07/31 02:51:08;;;;;;;;;;;;;;;26.25;45.85;100026.47;2089140;28;19943;-45
2022/07/31 02:52:08;;;;;;;;;;;;;;;26.25;45.89;100029.22;2092436;28;19979;-43
2022/07/31 02:53:09;;;;;;;;;;;;;;;26.25;45.85;100032.00;2091480;28;19943;-44
2022/07/31 02:54:09;;;;;;;;;;;;;;;26.25;45.64;100032.00;2094779;28;20903;-46
2022/07/31 02:55:09;;;;;;;;;;;;;;;26.24;45.86;100033.06;2092390;28;20000;-45
2022/07/31 02:56:10;;;;;;;;;;;;;;;26.26;45.88;100030.94;2091265;28;19916;-45
2022/07/31 02:57:11;;;;;;;;;;;;;;;26.24;45.67;100031.16;2095743;28;19927;-45
2022/07/31 02:58:11;;;;;;;;;;;;;;;26.25;45.91;100037.53;2090527;28;19916;-43
2022/07/31 02:59:12;;;;;;;;;;;;;;;26.23;45.94;100040.47;2089253;28;19913;-44
2022/07/31 03:00:22;;;;;;;;;;;;;;;26.25;45.72;100048.56;2098661;28;19982;-44
2022/07/31 03:01:22;;;;;;;;;;;;;;;26.24;45.79;100047.72;2090885;28;20031;-45
2022/07/31 03:02:22;;;;;;;;;;;;;;;26.22;45.73;100041.53;2088711;28;20275;-45
2022/07/31 03:03:22;;;;;;;;;;;;;;;26.24;45.69;100041.34;2091350;28;19974;-44
2022/07/31 03:04:23;;;;;;;;;;;;;;;26.24;45.97;100046.88;2092994;28;20011;-46
2022/07/31 03:05:23;;;;;;;;;;;;;;;26.23;45.79;100046.00;2092530;28;20001;-44
2022/07/31 03:06:24;;;;;;;;;;;;;;;26.23;46.02;100046.00;2092776;28;19919;-44
2022/07/31 03:07:24;;;;;;;;;;;;;;;26.23;45.80;100050.66;2094891;28;20446;-44
2022/07/31 03:08:25;;;;;;;;;;;;;;;26.23;45.98;100046.00;2085584;28;19924;-44
2022/07/31 03:09:26;;;;;;;;;;;;;;;26.22;45.71;100041.53;2089805;28;20570;-44
2022/07/31 03:10:26;;;;;;;;;;;;;;;26.22;45.70;100047.06;2089384;28;20035;-45
2022/07/31 03:11:27;;;;;;;;;;;;;;;26.22;45.91;100037.94;2086948;28;19908;-45
2022/07/31 03:12:27;;;;;;;;;;;;;;;26.22;45.73;100033.25;2091081;28;19926;-48
2022/07/31 03:13:28;;;;;;;;;;;;;;;26.22;46.02;100049.81;2092179;28;19915;-46
2022/07/31 03:14:29;;;;;;;;;;;;;;;26.21;46.02;100041.72;2086927;28;19920;-44
2022/07/31 03:15:30;;;;;;;;;;;;;;;26.22;45.75;100043.44;2092886;28;19991;-47
2022/07/31 03:16:32;;;;;;;;;;;;;;;26.22;45.73;100037.94;2090670;28;20325;-44
2022/07/31 03:17:33;;;;;;;;;;;;;;;26.23;46.05;100043.22;2090553;28;20019;-45
2022/07/31 03:18:33;;;;;;;;;;;;;;;26.21;45.75;100038.97;2093991;28;19916;-45
2022/07/31 03:19:34;;;;;;;;;;;;;;;26.22;45.79;100038.78;2087684;28;20563;-45
2022/07/31 03:20:34;;;;;;;;;;;;;;;26.21;45.82;100034.31;2096796;28;19919;-44
2022/07/31 03:21:34;;;;;;;;;;;;;;;26.22;45.86;100037.94;2086915;28;19916;-47
2022/07/31 03:22:35;;;;;;;;;;;;;;;26.21;45.88;100036.19;2091876;28;20250;-47
2022/07/31 03:23:37;;;;;;;;;;;;;;;26.22;45.93;100029.63;2090092;28;19919;-45
2022/07/31 03:24:37;;;;;;;;;;;;;;;26.23;45.95;100028.56;2093074;28;20335;-45
2022/07/31 03:25:39;;;;;;;;;;;;;;;26.22;45.65;100032.41;2094126;28;20377;-46
2022/07/31 03:26:40;;;;;;;;;;;;;;;26.22;45.59;100029.63;2086857;28;20241;-44
2022/07/31 03:27:40;;;;;;;;;;;;;;;26.22;45.94;100027.72;2090985;28;20045;-44
2022/07/31 03:28:41;;;;;;;;;;;;;;;26.21;45.86;100030.66;2089949;28;19935;-46
2022/07/31 03:29:42;;;;;;;;;;;;;;;26.23;45.81;100025.81;2092422;28;19908;-45
2022/07/31 03:30:42;;;;;;;;;;;;;;;26.20;45.93;100024.28;2091275;28;20053;-45
2022/07/31 03:31:42;;;;;;;;;;;;;;;26.22;45.66;100026.88;2091658;28;19966;-45
2022/07/31 03:32:43;;;;;;;;;;;;;;;26.22;45.67;100024.13;2093744;28;20400;-46
2022/07/31 03:33:44;;;;;;;;;;;;;;;26.21;45.96;100027.91;2091676;28;19916;-50
2022/07/31 03:34:44;;;;;;;;;;;;;;;26.22;45.66;100032.41;2094135;28;19924;-47
2022/07/31 03:35:45;;;;;;;;;;;;;;;26.22;45.67;100037.94;2092228;28;20061;-44
2022/07/31 03:36:45;;;;;;;;;;;;;;;26.21;45.92;100041.72;2091516;28;20026;-45
2022/07/31 03:37:46;;;;;;;;;;;;;;;26.22;45.87;100032.41;2093691;28;19923;-44
2022/07/31 03:38:46;;;;;;;;;;;;;;;26.22;45.91;100032.41;2091026;28;19969;-50
2022/07/31 03:39:47;;;;;;;;;;;;;;;26.22;45.95;100037.94;2092877;28;19946;-44
2022/07/31 03:40:47;;;;;;;;;;;;;;;26.21;45.77;100045.38;2092669;28;19916;-44
2022/07/31 03:41:48;;;;;;;;;;;;;;;26.22;45.92;100043.44;2092703;28;19916;-45
2022/07/31 03:42:49;;;;;;;;;;;;;;;26.22;45.70;100043.44;2093720;28;19909;-45
2022/07/31 03:43:49;;;;;;;;;;;;;;;26.22;45.89;100040.69;2089875;28;19931;-44
2022/07/31 03:44:50;;;;;;;;;;;;;;;26.21;45.75;100036.19;2091903;28;20002;-47
2022/07/31 03:45:51;;;;;;;;;;;;;;;26.21;45.68;100041.72;2095181;28;19927;-44
2022/07/31 03:46:51;;;;;;;;;;;;;;;26.20;45.80;100042.78;2094380;28;20838;-44
2022/07/31 03:47:51;;;;;;;;;;;;;;;26.20;45.79;100040.03;2096814;28;19916;-45
2022/07/31 03:48:52;;;;;;;;;;;;;;;26.20;45.96;100034.50;2086005;28;19923;-44
2022/07/31 03:49:53;;;;;;;;;;;;;;;26.20;45.96;100028.97;2089961;28;20698;-44
2022/07/31 03:50:53;;;;;;;;;;;;;;;26.20;45.80;100034.50;2096760;28;19911;-44
2022/07/31 03:51:53;;;;;;;;;;;;;;;26.20;45.81;100028.97;2091931;28;19962;-48
2022/07/31 03:52:55;;;;;;;;;;;;;;;26.19;45.84;100027.25;2091913;28;20412;-45
2022/07/31 03:53:55;;;;;;;;;;;;;;;26.19;46.03;100022.59;2094895;28;20179;-47
2022/07/31 03:54:55;;;;;;;;;;;;;;;26.19;45.81;100033.66;2088482;28;20078;-46
2022/07/31 03:55:56;;;;;;;;;;;;;;;26.18;45.86;100023.63;2086683;28;19916;-44
2022/07/31 03:56:57;;;;;;;;;;;;;;;26.19;45.97;100032.78;2094530;28;20512;-49
2022/07/31 03:57:57;;;;;;;;;;;;;;;26.18;45.66;100026.41;2093711;28;20344;-45
2022/07/31 03:58:58;;;;;;;;;;;;;;;26.19;45.90;100027.25;2094781;28;19914;-46
2022/07/31 04:00:00;;;;;;;;;;;;;;;26.18;45.80;100022.78;2095899;28;19916;-45
2022/07/31 04:01:00;;;;;;;;;;;;;;;26.18;45.80;100023.63;2091389;28;19919;-46
2022/07/31 04:02:01;;;;;;;;;;;;;;;26.18;46.03;100026.41;2093262;28;19958;-45
2022/07/31 04:03:06;;;;;;;;;;;;;;;26.18;45.97;100020.88;2094731;28;19908;-44
2022/07/31 04:04:06;;;;;;;;;;;;;;;26.18;45.96;100017.25;2093276;28;20010;-46
2022/07/31 04:05:06;;;;;;;;;;;;;;;26.19;45.76;100024.47;2093832;28;19915;-49
2022/07/31 04:06:07;;;;;;;;;;;;;;;26.19;45.92;100021.72;2094184;28;19931;-44
2022/07/31 04:07:07;;;;;;;;;;;;;;;26.19;45.79;100018.97;2092990;28;19939;-46
2022/07/31 04:08:08;;;;;;;;;;;;;;;26.18;46.17;100015.34;2092741;28;19908;-49
2022/07/31 04:09:09;;;;;;;;;;;;;;;26.18;45.77;100025.56;2092295;28;20009;-44
2022/07/31 04:10:09;;;;;;;;;;;;;;;26.17;46.02;100016.41;2093924;28;19916;-44
2022/07/31 04:11:10;;;;;;;;;;;;;;;26.19;45.74;100010.66;2094096;28;19912;-44
2022/07/31 04:12:10;;;;;;;;;;;;;;;26.19;45.90;100010.66;2093342;28;20413;-47
2022/07/31 04:13:10;;;;;;;;;;;;;;;26.17;45.87;100007.28;2094147;28;19923;-46
2022/07/31 04:14:11;;;;;;;;;;;;;;;26.19;45.79;100016.19;2091971;28;19920;-45
2022/07/31 04:15:11;;;;;;;;;;;;;;;26.18;46.06;100012.59;2093635;28;19958;-44
2022/07/31 04:16:12;;;;;;;;;;;;;;;26.17;45.92;100008.13;2087863;28;19917;-46
2022/07/31 04:17:12;;;;;;;;;;;;;;;26.19;45.79;100016.19;2087625;28;19928;-44
2022/07/31 04:18:12;;;;;;;;;;;;;;;26.18;45.77;100004.28;2085399;28;19923;-46
2022/07/31 04:19:12;;;;;;;;;;;;;;;26.18;45.96;100007.06;2084688;28;19916;-45
2022/07/31 04:20:13;;;;;;;;;;;;;;;26.18;45.90;100003.44;2087224;28;19920;-48
2022/07/31 04:21:13;;;;;;;;;;;;;;;26.18;45.77;100000.69;2080140;28;19966;-45
2022/07/31 04:22:13;;;;;;;;;;;;;;;26.17;46.02;99997.06;2084503;28;20005;-46
2022/07/31 04:23:14;;;;;;;;;;;;;;;26.17;46.11;99991.56;2081085;28;19926;-45
2022/07/31 04:24:16;;;;;;;;;;;;;;;26.17;45.76;99987.94;2071386;28;20000;-45
2022/07/31 04:25:16;;;;;;;;;;;;;;;26.17;45.88;99990.69;2078251;28;19923;-44
2022/07/31 04:26:17;;;;;;;;;;;;;;;26.17;45.73;99983.25;2089084;28;20397;-47
2022/07/31 04:27:18;;;;;;;;;;;;;;;26.16;46.07;99981.53;2084573;28;19956;-46
2022/07/31 04:28:18;;;;;;;;;;;;;;;26.17;45.98;99979.66;2088373;28;19969;-46
2022/07/31 04:29:18;;;;;;;;;;;;;;;26.18;45.74;99986.88;2087237;28;19917;-45
2022/07/31 04:30:18;;;;;;;;;;;;;;;26.15;46.03;99977.06;2088015;28;20230;-46
2022/07/31 04:31:19;;;;;;;;;;;;;;;26.16;45.89;99984.31;2089340;28;19923;-44
2022/07/31 04:32:20;;;;;;;;;;;;;;;26.15;45.98;99982.59;2079356;28;19921;-44
2022/07/31 04:33:20;;;;;;;;;;;;;;;26.15;45.74;99982.59;2082514;28;19909;-44
2022/07/31 04:34:21;;;;;;;;;;;;;;;26.15;46.06;99979.84;2086416;28;19963;-46
2022/07/31 04:35:21;;;;;;;;;;;;;;;26.14;45.80;99974.50;2081614;28;19955;-44
2022/07/31 04:36:21;;;;;;;;;;;;;;;26.15;45.82;99979.84;2087257;28;19970;-44
2022/07/31 04:37:22;;;;;;;;;;;;;;;26.15;45.97;99979.00;2085473;28;20060;-44
2022/07/31 04:38:22;;;;;;;;;;;;;;;26.15;45.78;99987.28;2084412;28;19966;-45
2022/07/31 04:39:22;;;;;;;;;;;;;;;26.14;46.11;99980.91;2089251;28;20061;-46
2022/07/31 04:40:25;;;;;;;;;;;;;;;26.15;46.06;99990.03;2084067;28;19952;-45
2022/07/31 04:41:25;;;;;;;;;;;;;;;26.15;45.78;99992.81;2085568;28;19916;-45
2022/07/31 04:42:25;;;;;;;;;;;;;;;26.14;46.10;99991.97;2085159;28;20284;-48
2022/07/31 04:43:26;;;;;;;;;;;;;;;26.14;45.75;99991.97;2084765;28;19925;-45
2022/07/31 04:44:26;;;;;;;;;;;;;;;26.14;45.89;99997.47;2085519;28;20375;-45
2022/07/31 04:45:26;;;;;;;;;;;;;;;26.15;45.72;99998.34;2083161;28;19923;-44
2022/07/31 04:46:27;;;;;;;;;;;;;;;26.14;46.03;99991.97;2087911;28;19947;-45
2022/07/31 04:47:27;;;;;;;;;;;;;;;26.15;45.82;99998.34;2074728;28;20011;-46
2022/07/31 04:48:28;;;;;;;;;;;;;;;26.14;45.85;100000.25;2074290;28;19917;-45
2022/07/31 04:49:29;;;;;;;;;;;;;;;26.14;46.13;99996.59;2074867;28;20061;-45
2022/07/31 04:50:30;;;;;;;;;;;;;;;26.14;45.82;99996.59;2082551;28;19956;-45
2022/07/31 04:51:30;;;;;;;;;;;;;;;26.14;45.99;99999.38;2090257;28;20222;-45
2022/07/31 04:52:31;;;;;;;;;;;;;;;26.14;46.13;99996.59;2084220;28;19922;-44
2022/07/31 04:53:31;;;;;;;;;;;;;;;26.14;45.78;100008.53;2075902;28;19917;-45
2022/07/31 04:54:32;;;;;;;;;;;;;;;26.15;46.06;100003.84;2074370;28;19923;-44
2022/07/31 04:55:32;;;;;;;;;;;;;;;26.14;46.09;100007.66;2082517;28;20314;-45
2022/07/31 04:56:34;;;;;;;;;;;;;;;26.14;45.92;100008.53;2074780;28;19924;-45
2022/07/31 04:57:35;;;;;;;;;;;;;;;26.14;45.83;100018.69;2076463;28;19925;-45
2022/07/31 04:58:35;;;;;;;;;;;;;;;26.15;46.11;100031.47;2089624;28;19917;-45
2022/07/31 04:59:35;;;;;;;;;;;;;;;26.15;45.97;100017.66;2087349;28;19916;-44
2022/07/31 05:00:35;;;;;;;;;;;;;;;26.14;45.81;100030.63;2082577;28;20046;-44
2022/07/31 05:01:36;;;;;;;;;;;;;;;26.14;46.13;100024.22;2085802;28;19912;-43
2022/07/31 05:02:36;;;;;;;;;;;;;;;26.14;46.13;100013.19;2086229;28;19917;-44
2022/07/31 05:03:37;;;;;;;;;;;;;;;26.15;46.03;100025.94;2087217;28;19951;-46
2022/07/31 05:04:37;;;;;;;;;;;;;;;26.14;46.08;100014.06;2084718;28;20356;-43
2022/07/31 05:05:39;;;;;;;;;;;;;;;26.14;45.83;100019.59;2082771;28;20123;-44
2022/07/31 05:06:46;;;;;;;;;;;;;;;26.14;45.89;100013.19;2076209;28;19924;-47
2022/07/31 05:07:47;;;;;;;;;;;;;;;26.15;45.81;100017.66;2069965;28;19956;-44
2022/07/31 05:08:47;;;;;;;;;;;;;;;26.14;45.93;100015.94;2071294;28;19942;-46
2022/07/31 05:09:48;;;;;;;;;;;;;;;26.13;46.01;100017.84;2084699;28;20322;-44
2022/07/31 05:12:07;;;;;;;;;;;;;;;26.14;45.78;100018.69;2086588;28;19917;-45
2022/07/31 05:13:07;;;;;;;;;;;;;;;26.13;45.77;100017.84;2091877;28;19916;-44
2022/07/31 05:14:08;;;;;;;;;;;;;;;26.14;45.98;100029.75;2084719;28;19917;-46
2022/07/31 05:15:09;;;;;;;;;;;;;;;26.14;45.84;100029.75;2090895;28;19916;-45
2022/07/31 05:16:12;;;;;;;;;;;;;;;26.13;45.86;100039.09;2090216;28;20050;-44
2022/07/31 05:17:12;;;;;;;;;;;;;;;26.14;46.00;100032.50;2092662;28;19931;-45